Time;durP1;ratioP1;P1;durP2;ratioP2;P2;SDS_P1;SDS_P2;PMS_P1;PMS_P2;Temp;Humidity;BMP_temperature;BMP_pressure;BME280_temperature;BME280_humidity;BME280_pressure;Samples;Min_cycle;Max_cycle;Signal;HPM_P1;HPM_P2
2021/04/17 00:02:46;;;;;;;1.33;0.70;;;20.10;44.00;;;;;;7673588;23;20013;-63
2021/04/17 00:05:46;;;;;;;0.43;0.40;;;20.10;44.00;;;;;;7673594;23;20016;-63
2021/04/17 00:08:47;;;;;;;0.35;0.35;;;20.10;44.10;;;;;;7673001;23;20009;-63
2021/04/17 00:11:49;;;;;;;0.75;0.50;;;20.10;44.80;;;;;;7674007;23;20029;-63
2021/04/17 00:14:51;;;;;;;0.85;0.60;;;20.10;44.10;;;;;;7673192;23;20020;-63
2021/04/17 00:17:51;;;;;;;0.40;0.40;;;20.10;43.90;;;;;;7673321;23;20020;-63
2021/04/17 00:20:52;;;;;;;0.60;0.40;;;20.10;44.10;;;;;;7673313;23;20021;-63
2021/04/17 00:23:53;;;;;;;0.85;0.55;;;20.10;44.10;;;;;;7673286;23;20008;-63
2021/04/17 00:26:54;;;;;;;0.73;0.50;;;20.10;44.00;;;;;;7672463;23;20005;-63
2021/04/17 00:29:54;;;;;;;0.68;0.50;;;20.10;43.90;;;;;;7672902;23;20016;-63
2021/04/17 00:32:55;;;;;;;0.95;0.40;;;20.10;44.00;;;;;;7673123;23;20328;-63
2021/04/17 00:35:55;;;;;;;0.60;0.40;;;20.10;43.90;;;;;;7672701;23;20440;-63
2021/04/17 00:38:56;;;;;;;0.43;0.40;;;20.10;43.90;;;;;;7672279;23;20036;-63
2021/04/17 00:41:57;;;;;;;0.47;0.40;;;20.10;44.00;;;;;;7673051;23;20029;-63
2021/04/17 00:44:57;;;;;;;1.75;0.55;;;20.10;44.00;;;;;;7673137;23;20012;-63
2021/04/17 00:47:58;;;;;;;0.40;0.40;;;20.10;44.00;;;;;;7672479;23;20013;-63
2021/04/17 00:50:59;;;;;;;0.50;0.30;;;20.10;44.00;;;;;;7672802;23;20009;-63
2021/04/17 00:54:00;;;;;;;0.98;0.32;;;20.10;43.90;;;;;;7672448;23;20328;-63
2021/04/17 00:57:00;;;;;;;0.43;0.32;;;20.10;43.90;;;;;;7673365;23;20066;-63
2021/04/17 01:00:03;;;;;;;1.02;0.43;;;20.10;44.70;;;;;;7671998;23;20436;-63
2021/04/17 01:03:28;;;;;;;0.60;0.40;;;20.10;44.10;;;;;;7672440;23;20005;-63
2021/04/17 01:06:39;;;;;;;0.77;0.40;;;20.10;44.10;;;;;;7672622;23;20008;-65
2021/04/17 01:09:43;;;;;;;0.55;0.40;;;20.10;44.00;;;;;;7672550;23;20011;-63
2021/04/17 01:12:47;;;;;;;0.68;0.40;;;20.10;43.90;;;;;;7672213;23;20016;-65
2021/04/17 01:15:49;;;;;;;0.60;0.50;;;20.10;44.00;;;;;;7672690;23;20031;-65
2021/04/17 01:18:52;;;;;;;0.93;0.50;;;20.10;44.60;;;;;;7671948;23;20444;-65
2021/04/17 01:21:52;;;;;;;0.95;0.45;;;20.10;44.10;;;;;;7672333;23;20387;-65
2021/04/17 01:25:00;;;;;;;0.65;0.38;;;20.10;44.10;;;;;;7671057;23;20013;-65
2021/04/17 01:28:00;;;;;;;0.98;0.50;;;20.10;43.90;;;;;;7672536;23;20008;-65
2021/04/17 01:31:03;;;;;;;0.40;0.40;;;20.10;44.00;;;;;;7672636;23;20364;-65
2021/04/17 01:34:06;;;;;;;0.40;0.40;;;20.10;44.10;;;;;;7671910;23;20515;-63
2021/04/17 01:37:09;;;;;;;0.63;0.30;;;20.10;44.00;;;;;;7672544;23;20088;-63
2021/04/17 01:40:11;;;;;;;1.02;0.30;;;20.10;44.00;;;;;;7671946;23;20040;-63
2021/04/17 01:43:14;;;;;;;0.88;0.40;;;20.10;44.10;;;;;;7673840;23;20013;-63
2021/04/17 01:46:19;;;;;;;0.75;0.47;;;20.10;44.00;;;;;;7675312;23;20005;-63
2021/04/17 01:49:20;;;;;;;0.57;0.40;;;20.10;44.00;;;;;;7674621;23;20389;-63
2021/04/17 01:52:23;;;;;;;0.30;0.30;;;20.10;44.10;;;;;;7674935;23;20005;-63
2021/04/17 01:55:26;;;;;;;0.30;0.30;;;20.10;44.00;;;;;;7675346;23;20017;-63
2021/04/17 01:58:30;;;;;;;0.35;0.35;;;20.10;44.20;;;;;;7674942;23;20009;-63
2021/04/17 02:01:31;;;;;;;0.40;0.40;;;20.10;44.10;;;;;;7674660;23;20020;-63
2021/04/17 02:04:36;;;;;;;0.70;0.40;;;20.10;44.10;;;;;;7678003;23;20014;-63
2021/04/17 02:07:36;;;;;;;0.30;0.30;;;20.10;44.20;;;;;;7674961;23;20012;-63
2021/04/17 02:10:37;;;;;;;0.47;0.40;;;20.10;44.10;;;;;;7674628;23;20005;-63
2021/04/17 02:13:40;;;;;;;0.68;0.47;;;20.10;44.10;;;;;;7674579;23;20005;-63
2021/04/17 02:17:02;;;;;;;0.40;0.40;;;20.10;44.10;;;;;;7673834;23;20079;-63
2021/04/17 02:20:08;;;;;;;0.30;0.30;;;20.10;44.10;;;;;;7674632;23;20068;-65
2021/04/17 02:23:12;;;;;;;0.65;0.30;;;20.10;44.10;;;;;;7674528;23;20012;-63
2021/04/17 02:26:13;;;;;;;0.93;0.30;;;20.10;44.10;;;;;;7674403;23;20009;-63
2021/04/17 02:29:14;;;;;;;0.95;0.50;;;20.10;44.10;;;;;;7674392;23;20005;-63
2021/04/17 02:32:15;;;;;;;0.30;0.30;;;20.10;44.00;;;;;;7673771;23;20040;-63
2021/04/17 02:35:16;;;;;;;0.50;0.30;;;20.10;44.10;;;;;;7674166;23;20005;-63
2021/04/17 02:38:17;;;;;;;0.70;0.50;;;20.10;44.10;;;;;;7674692;23;20008;-63
2021/04/17 02:41:18;;;;;;;0.30;0.28;;;20.10;44.10;;;;;;7674327;23;20475;-63
2021/04/17 02:44:18;;;;;;;0.30;0.30;;;20.10;44.10;;;;;;7674095;23;20085;-63
2021/04/17 02:47:19;;;;;;;0.40;0.30;;;20.10;44.10;;;;;;7674017;23;20085;-63
2021/04/17 02:50:20;;;;;;;0.40;0.40;;;20.10;44.00;;;;;;7673891;23;20008;-63
2021/04/17 02:53:21;;;;;;;0.57;0.30;;;20.10;44.10;;;;;;7674139;23;20032;-63
2021/04/17 02:56:22;;;;;;;1.35;0.47;;;20.10;44.10;;;;;;7674632;23;20084;-63
2021/04/17 02:59:22;;;;;;;0.40;0.30;;;20.10;44.10;;;;;;7673939;23;20101;-63
2021/04/17 03:02:23;;;;;;;0.30;0.30;;;20.10;44.00;;;;;;7674015;23;20009;-63
2021/04/17 03:05:23;;;;;;;0.47;0.30;;;20.10;44.10;;;;;;7673730;23;20336;-62
2021/04/17 03:08:24;;;;;;;0.30;0.30;;;20.10;44.10;;;;;;7673751;23;20008;-63
2021/04/17 03:11:26;;;;;;;0.38;0.38;;;20.10;44.10;;;;;;7672948;23;20008;-63
2021/04/17 03:14:26;;;;;;;0.30;0.30;;;20.00;44.10;;;;;;7673109;23;20016;-63
2021/04/17 03:17:27;;;;;;;0.50;0.45;;;20.10;44.10;;;;;;7673065;23;20021;-63
2021/04/17 03:20:28;;;;;;;0.55;0.55;;;20.10;44.10;;;;;;7672369;23;20019;-63
2021/04/17 03:23:28;;;;;;;0.43;0.30;;;20.10;44.10;;;;;;7672992;23;20336;-63
2021/04/17 03:26:29;;;;;;;0.77;0.43;;;20.10;44.10;;;;;;7672710;23;20377;-63
2021/04/17 03:29:30;;;;;;;0.43;0.40;;;20.10;43.90;;;;;;7672934;23;20008;-63
2021/04/17 03:32:30;;;;;;;0.93;0.65;;;20.10;44.10;;;;;;7672412;23;20012;-63
2021/04/17 03:35:32;;;;;;;0.45;0.25;;;20.10;44.10;;;;;;7672978;23;20008;-63
2021/04/17 03:38:33;;;;;;;0.30;0.30;;;20.10;44.10;;;;;;7672628;23;20336;-63
2021/04/17 03:41:33;;;;;;;0.60;0.40;;;20.10;44.10;;;;;;7672991;23;20009;-63
2021/04/17 03:44:34;;;;;;;0.38;0.30;;;20.10;44.10;;;;;;7672730;23;20340;-63
2021/04/17 03:47:34;;;;;;;0.65;0.30;;;20.10;44.00;;;;;;7672227;23;20001;-63
2021/04/17 03:50:36;;;;;;;0.35;0.30;;;20.10;44.10;;;;;;7673014;23;20074;-63
2021/04/17 03:53:37;;;;;;;0.73;0.47;;;20.00;43.90;;;;;;7672675;23;20448;-63
2021/04/17 03:56:37;;;;;;;0.75;0.40;;;20.10;44.70;;;;;;7672656;23;20005;-63
2021/04/17 04:03:35;;;;;;;0.57;0.50;;;20.10;44.10;;;;;;7673728;23;20044;-63
2021/04/17 04:06:35;;;;;;;0.30;0.30;;;20.00;43.90;;;;;;7673385;23;20393;-63
2021/04/17 04:09:36;;;;;;;0.60;0.32;;;20.00;43.90;;;;;;7673369;23;20009;-63
2021/04/17 04:12:37;;;;;;;0.43;0.40;;;20.10;44.10;;;;;;7672675;23;20009;-63
2021/04/17 04:15:37;;;;;;;0.50;0.50;;;20.10;44.00;;;;;;7671689;23;20123;-63
2021/04/17 04:18:38;;;;;;;0.40;0.22;;;20.00;44.10;;;;;;7672741;23;20021;-63
2021/04/17 04:21:38;;;;;;;0.47;0.40;;;20.10;44.10;;;;;;7672694;23;20013;-63
2021/04/17 04:24:39;;;;;;;0.43;0.40;;;20.10;44.10;;;;;;7672308;23;20428;-63
2021/04/17 04:27:39;;;;;;;0.82;0.47;;;20.10;44.10;;;;;;7672913;23;20016;-62
2021/04/17 04:30:40;;;;;;;0.57;0.35;;;20.00;44.00;;;;;;7672831;23;20005;-63
2021/04/17 04:33:40;;;;;;;0.40;0.40;;;20.10;44.10;;;;;;7672906;23;20005;-63
2021/04/17 04:36:41;;;;;;;0.30;0.30;;;20.10;44.10;;;;;;7672708;23;20028;-63
2021/04/17 04:39:42;;;;;;;0.68;0.40;;;20.10;44.10;;;;;;7676258;23;20096;-63
2021/04/17 04:42:42;;;;;;;0.90;0.50;;;20.10;44.10;;;;;;7672797;23;20027;-63
2021/04/17 04:45:43;;;;;;;0.77;0.40;;;20.10;44.10;;;;;;7672783;23;20009;-63
2021/04/17 04:48:43;;;;;;;0.32;0.30;;;20.10;44.20;;;;;;7672859;23;20087;-63
2021/04/17 04:51:44;;;;;;;0.50;0.40;;;20.10;44.10;;;;;;7672725;23;20333;-63
2021/04/17 04:54:44;;;;;;;0.60;0.50;;;20.10;44.20;;;;;;7673277;23;20032;-63
2021/04/17 04:57:45;;;;;;;0.85;0.40;;;20.10;44.00;;;;;;7672683;23;20188;-63
2021/04/17 05:00:45;;;;;;;0.60;0.50;;;20.10;44.20;;;;;;7672721;23;20013;-63
2021/04/17 05:03:46;;;;;;;0.63;0.30;;;20.10;44.00;;;;;;7672785;23;20005;-63
2021/04/17 05:06:47;;;;;;;0.20;0.20;;;20.10;44.00;;;;;;7672463;23;20017;-63
2021/04/17 05:09:47;;;;;;;0.70;0.40;;;20.10;43.90;;;;;;7673547;23;20008;-63
2021/04/17 05:12:47;;;;;;;0.40;0.40;;;20.10;44.00;;;;;;7672739;23;20005;-63
2021/04/17 05:15:48;;;;;;;0.30;0.30;;;20.10;44.00;;;;;;7670866;23;20016;-62
2021/04/17 05:18:49;;;;;;;0.50;0.35;;;20.00;43.90;;;;;;7669735;23;20021;-63
2021/04/17 05:21:49;;;;;;;0.50;0.32;;;20.10;43.90;;;;;;7672399;23;20031;-63
2021/04/17 05:24:50;;;;;;;0.63;0.47;;;20.10;43.90;;;;;;7672868;23;20001;-63
2021/04/17 05:27:51;;;;;;;0.45;0.30;;;20.10;44.00;;;;;;7670476;23;20036;-63
2021/04/17 05:30:51;;;;;;;0.30;0.30;;;20.10;43.80;;;;;;7672624;23;20072;-63
2021/04/17 05:33:54;;;;;;;0.50;0.38;;;20.10;43.80;;;;;;7672332;23;20048;-63
2021/04/17 05:36:55;;;;;;;0.55;0.32;;;20.10;43.90;;;;;;7672761;23;20770;-63
2021/04/17 05:39:55;;;;;;;0.73;0.60;;;20.10;43.90;;;;;;7672358;23;20013;-63
2021/04/17 05:42:55;;;;;;;1.25;0.43;;;20.10;43.90;;;;;;7672535;23;20015;-63
2021/04/17 05:45:56;;;;;;;0.30;0.30;;;20.10;43.90;;;;;;7672787;23;20035;-63
2021/04/17 05:48:57;;;;;;;0.40;0.30;;;20.10;43.90;;;;;;7671889;23;20017;-63
2021/04/17 05:51:57;;;;;;;0.50;0.30;;;20.10;43.90;;;;;;7672588;23;20059;-63
2021/04/17 05:54:58;;;;;;;0.50;0.40;;;20.10;44.10;;;;;;7671966;23;20001;-63
2021/04/17 05:57:58;;;;;;;0.30;0.30;;;20.10;43.90;;;;;;7672642;23;20431;-65
2021/04/17 06:00:59;;;;;;;0.50;0.40;;;20.10;43.90;;;;;;7672066;23;20064;-63
2021/04/17 06:03:59;;;;;;;0.40;0.40;;;20.10;43.90;;;;;;7672859;23;20058;-63
2021/04/17 06:07:00;;;;;;;0.30;0.30;;;20.10;43.90;;;;;;7672160;23;20002;-63
2021/04/17 06:10:00;;;;;;;0.45;0.40;;;20.10;44.00;;;;;;7672324;23;20068;-63
2021/04/17 06:13:01;;;;;;;0.90;0.30;;;20.10;43.90;;;;;;7672459;23;20013;-63
2021/04/17 06:16:04;;;;;;;0.40;0.32;;;20.10;44.00;;;;;;7671990;23;20009;-63
2021/04/17 06:19:06;;;;;;;0.47;0.35;;;20.10;44.00;;;;;;7671960;23;20071;-61
2021/04/17 06:22:07;;;;;;;0.28;0.28;;;20.10;43.90;;;;;;7672069;23;20332;-63
2021/04/17 06:25:09;;;;;;;0.20;0.20;;;20.10;43.90;;;;;;7672067;23;20008;-63
2021/04/17 06:28:09;;;;;;;1.17;0.60;;;20.10;43.90;;;;;;7672570;23;20076;-63
2021/04/17 06:31:10;;;;;;;0.45;0.40;;;20.00;43.90;;;;;;7672466;23;20425;-63
2021/04/17 06:34:10;;;;;;;0.50;0.40;;;20.10;43.90;;;;;;7673898;23;20364;-63
2021/04/17 06:37:11;;;;;;;0.57;0.40;;;20.10;43.90;;;;;;7675057;23;20447;-63
2021/04/17 06:40:12;;;;;;;0.50;0.30;;;20.10;43.90;;;;;;7673948;23;20005;-63
2021/04/17 06:43:15;;;;;;;0.40;0.40;;;20.10;43.90;;;;;;7674601;23;20020;-63
2021/04/17 06:46:16;;;;;;;0.43;0.40;;;20.10;43.80;;;;;;7674304;23;20080;-63
2021/04/17 06:49:17;;;;;;;1.70;0.55;;;20.10;43.90;;;;;;7673869;23;20397;-63
2021/04/17 06:52:20;;;;;;;0.77;0.40;;;20.10;44.00;;;;;;7674234;23;20424;-63
2021/04/17 06:55:21;;;;;;;0.85;0.50;;;20.10;44.00;;;;;;7673884;23;20009;-63
2021/04/17 06:58:21;;;;;;;0.38;0.20;;;20.10;43.90;;;;;;7673953;23;20005;-63
2021/04/17 07:01:22;;;;;;;0.82;0.43;;;20.10;43.90;;;;;;7673327;23;20012;-63
2021/04/17 07:04:23;;;;;;;0.20;0.20;;;20.10;43.80;;;;;;7674111;23;20318;-63
2021/04/17 07:07:24;;;;;;;0.32;0.30;;;20.10;44.00;;;;;;7674472;23;20101;-63
2021/04/17 07:10:24;;;;;;;0.32;0.32;;;20.10;44.00;;;;;;7673910;23;20448;-63
2021/04/17 07:13:27;;;;;;;0.30;0.30;;;20.10;44.00;;;;;;7673848;23;20005;-63
2021/04/17 07:16:27;;;;;;;0.45;0.45;;;20.10;44.00;;;;;;7673944;23;20396;-63
2021/04/17 07:19:47;;;;;;;1.10;0.40;;;20.10;43.90;;;;;;7673604;23;20013;-63
2021/04/17 07:22:47;;;;;;;0.50;0.35;;;20.10;43.90;;;;;;7673752;23;20076;-65
2021/04/17 07:26:10;;;;;;;0.73;0.45;;;20.10;44.00;;;;;;7673826;23;20004;-63
2021/04/17 07:29:14;;;;;;;1.17;0.40;;;20.10;44.00;;;;;;7673963;23;20009;-65
2021/04/17 07:32:18;;;;;;;0.73;0.40;;;20.10;44.00;;;;;;7673729;23;20012;-65
2021/04/17 07:35:20;;;;;;;0.47;0.38;;;20.10;43.90;;;;;;7673633;23;20028;-65
2021/04/17 07:38:24;;;;;;;0.57;0.30;;;20.10;44.10;;;;;;7673756;23;20350;-65
2021/04/17 07:41:24;;;;;;;0.30;0.30;;;20.10;44.00;;;;;;7672738;23;20341;-65
2021/04/17 07:44:34;;;;;;;0.40;0.30;;;20.10;44.00;;;;;;7674018;23;20008;-65
2021/04/17 07:47:35;;;;;;;0.88;0.45;;;20.10;43.90;;;;;;7673232;23;20013;-65
2021/04/17 07:50:36;;;;;;;0.43;0.30;;;20.10;44.00;;;;;;7673428;23;20012;-63
2021/04/17 07:53:40;;;;;;;1.05;0.52;;;20.10;44.00;;;;;;7673880;23;20065;-63
2021/04/17 07:56:40;;;;;;;0.30;0.30;;;20.10;44.00;;;;;;7673486;23;20380;-63
2021/04/17 07:59:42;;;;;;;0.40;0.30;;;20.10;44.00;;;;;;7672783;23;20012;-63
2021/04/17 08:02:48;;;;;;;0.32;0.32;;;20.10;44.00;;;;;;7673646;23;20471;-63
2021/04/17 08:05:50;;;;;;;0.30;0.20;;;20.10;44.00;;;;;;7673149;23;20079;-63
2021/04/17 08:08:52;;;;;;;0.35;0.30;;;20.10;44.10;;;;;;7673323;23;20001;-63
2021/04/17 08:11:56;;;;;;;0.52;0.30;;;20.10;44.00;;;;;;7673383;23;20009;-63
2021/04/17 08:14:57;;;;;;;0.73;0.40;;;20.10;44.80;;;;;;7673182;23;20425;-63
2021/04/17 08:17:58;;;;;;;0.43;0.38;;;20.10;44.00;;;;;;7672743;23;20031;-63
2021/04/17 08:21:00;;;;;;;0.40;0.32;;;20.10;44.10;;;;;;7672649;23;20483;-63
2021/04/17 08:24:01;;;;;;;0.75;0.40;;;20.10;44.00;;;;;;7673298;23;20036;-63
2021/04/17 08:27:02;;;;;;;1.40;0.50;;;20.10;43.90;;;;;;7673065;23;20389;-63
2021/04/17 08:30:09;;;;;;;0.80;0.40;;;20.10;44.00;;;;;;7673395;23;20024;-63
2021/04/17 08:33:19;;;;;;;0.43;0.40;;;20.10;44.00;;;;;;7672932;23;20005;-65
2021/04/17 08:37:01;;;;;;;0.60;0.38;;;20.10;43.90;;;;;;7672647;23;20088;-65
2021/04/17 08:40:04;;;;;;;0.50;0.40;;;20.10;44.00;;;;;;7642884;23;20023;-63
2021/04/17 08:43:08;;;;;;;0.30;0.30;;;20.10;44.00;;;;;;7672399;23;20436;-63
2021/04/17 08:46:17;;;;;;;0.68;0.30;;;20.10;44.00;;;;;;7672843;23;20440;-65
2021/04/17 08:49:29;;;;;;;0.38;0.35;;;20.10;44.10;;;;;;7672101;23;20377;-65
2021/04/17 08:52:41;;;;;;;0.68;0.40;;;20.10;44.00;;;;;;7672750;23;20001;-65
2021/04/17 08:55:49;;;;;;;0.80;0.40;;;20.10;44.10;;;;;;7672654;23;20016;-65
2021/04/17 08:59:09;;;;;;;0.50;0.40;;;20.10;44.10;;;;;;7673058;23;20039;-65
2021/04/17 09:02:14;;;;;;;0.50;0.50;;;20.10;44.00;;;;;;7672114;23;20020;-65
2021/04/17 09:05:16;;;;;;;;;;;20.10;44.10;;;;;;7673544;23;20005;-65
2021/04/17 09:08:17;;;;;;;0.82;0.40;;;20.10;44.00;;;;;;7672927;23;19907;-65
2021/04/17 09:11:36;;;;;;;0.63;0.40;;;20.10;44.10;;;;;;7672667;23;20013;-63
2021/04/17 09:14:58;;;;;;;0.30;0.30;;;20.10;44.10;;;;;;7671516;23;20005;-65
2021/04/17 09:17:58;;;;;;;1.58;0.52;;;20.10;44.10;;;;;;7672160;23;20016;-65
2021/04/17 09:21:00;;;;;;;0.52;0.38;;;20.10;44.20;;;;;;7672320;23;20143;-65
2021/04/17 09:24:03;;;;;;;0.60;0.40;;;20.10;44.10;;;;;;7672766;23;20016;-65
2021/04/17 09:27:04;;;;;;;0.43;0.38;;;20.10;44.20;;;;;;7672932;23;20005;-65
2021/04/17 09:30:15;;;;;;;0.93;0.40;;;20.10;44.40;;;;;;7662890;23;20036;-63
2021/04/17 09:33:16;;;;;;;0.75;0.47;;;20.10;44.30;;;;;;7664701;23;20016;-66
2021/04/17 09:36:20;;;;;;;1.75;0.93;;;20.10;44.40;;;;;;7669240;23;20012;-65
2021/04/17 09:39:27;;;;;;;1.42;0.52;;;20.10;44.40;;;;;;7669755;23;20037;-65
2021/04/17 09:42:33;;;;;;;1.55;0.40;;;20.10;44.40;;;;;;7669743;23;20328;-65
2021/04/17 09:45:37;;;;;;;1.02;0.30;;;20.10;44.50;;;;;;7669242;23;20175;-65
2021/04/17 09:48:40;;;;;;;0.80;0.30;;;20.10;44.50;;;;;;7668156;23;20444;-65
2021/04/17 09:51:40;;;;;;;0.80;0.40;;;20.10;44.50;;;;;;7669715;23;20009;-65
2021/04/17 09:54:41;;;;;;;2.17;0.80;;;20.10;44.50;;;;;;7669553;23;20005;-65
2021/04/17 09:57:46;;;;;;;1.10;0.55;;;20.10;44.50;;;;;;7670949;23;20009;-65
2021/04/17 10:00:47;;;;;;;;;;;20.10;44.60;;;;;;7665818;23;20206;-65
2021/04/17 10:03:53;;;;;;;0.82;0.55;;;20.10;44.60;;;;;;7672111;23;19936;-65
2021/04/17 10:06:55;;;;;;;1.23;0.40;;;20.10;44.60;;;;;;7672464;23;20009;-65
2021/04/17 10:10:00;;;;;;;1.88;0.57;;;20.10;44.60;;;;;;7672436;23;20001;-65
2021/04/17 10:13:01;;;;;;;;;;;20.10;44.60;;;;;;7671350;23;20687;-65
2021/04/17 10:16:02;;;;;;;1.42;0.70;;;20.10;45.20;;;;;;7673027;23;19911;-65
2021/04/17 10:19:09;;;;;;;2.53;0.60;;;20.10;44.60;;;;;;7672032;23;20029;-65
2021/04/17 10:22:12;;;;;;;1.00;0.63;;;20.10;44.60;;;;;;7671872;23;20004;-65
2021/04/17 10:25:32;;;;;;;1.48;0.50;;;20.10;44.60;;;;;;7670707;23;20020;-65
2021/04/17 10:28:34;;;;;;;3.63;0.60;;;20.10;44.60;;;;;;7672351;23;20088;-65
2021/04/17 10:31:35;;;;;;;0.63;0.50;;;20.10;44.60;;;;;;7671758;23;20403;-65
2021/04/17 10:34:36;;;;;;;1.75;0.75;;;20.10;44.60;;;;;;7671734;23;20009;-65
2021/04/17 10:37:47;;;;;;;2.35;0.55;;;20.10;44.60;;;;;;7670854;23;20016;-65
2021/04/17 10:40:47;;;;;;;2.60;0.75;;;20.10;44.60;;;;;;7671621;23;20020;-65
2021/04/17 10:43:48;;;;;;;4.45;0.93;;;20.10;44.60;;;;;;7671851;23;20009;-65
2021/04/17 10:46:50;;;;;;;1.17;0.70;;;20.10;44.60;;;;;;7672407;23;20511;-64
2021/04/17 10:49:50;;;;;;;3.38;0.60;;;20.20;44.70;;;;;;7670395;23;20028;-63
2021/04/17 10:53:04;;;;;;;3.67;0.65;;;20.20;44.70;;;;;;7671139;23;20163;-63
2021/04/17 10:56:18;;;;;;;1.73;0.50;;;20.20;44.80;;;;;;7671043;23;20009;-64
2021/04/17 10:59:19;;;;;;;1.67;0.40;;;20.20;44.80;;;;;;7671677;23;20021;-64
2021/04/17 11:02:27;;;;;;;1.60;0.73;;;20.20;44.70;;;;;;7670912;23;20011;-64
2021/04/17 11:05:32;;;;;;;1.58;0.60;;;20.20;44.70;;;;;;7670955;23;20009;-63
2021/04/17 11:08:32;;;;;;;;;;;20.20;44.70;;;;;;7672789;23;20009;-63
2021/04/17 11:11:33;;;;;;;1.25;0.68;;;20.20;44.80;;;;;;7670458;23;20032;-64
2021/04/17 11:14:34;;;;;;;0.75;0.50;;;20.20;44.80;;;;;;7670100;23;20005;-64
2021/04/17 11:17:34;;;;;;;2.17;0.68;;;20.20;44.80;;;;;;7671433;23;20080;-64
2021/04/17 11:20:48;;;;;;;1.90;0.63;;;20.20;44.80;;;;;;7669596;23;20032;-64
2021/04/17 11:23:55;;;;;;;1.85;0.80;;;20.20;44.80;;;;;;7671606;23;20005;-64
2021/04/17 11:26:56;;;;;;;2.15;0.73;;;20.10;44.70;;;;;;7670054;23;20009;-63
2021/04/17 11:29:57;;;;;;;0.30;0.30;;;20.20;44.80;;;;;;7671333;23;20012;-64
2021/04/17 11:32:58;;;;;;;3.45;0.50;;;20.20;44.80;;;;;;7671204;23;20009;-64
2021/04/17 11:35:58;;;;;;;1.55;0.57;;;20.20;44.80;;;;;;7671003;23;20005;-63
2021/04/17 11:38:59;;;;;;;0.70;0.47;;;20.20;44.80;;;;;;7670092;23;20009;-63
2021/04/17 11:42:00;;;;;;;1.27;0.47;;;20.20;44.80;;;;;;7671518;23;20075;-64
2021/04/17 11:45:00;;;;;;;1.80;0.60;;;20.20;44.80;;;;;;7670073;23;20028;-63
2021/04/17 11:48:04;;;;;;;1.25;0.40;;;20.20;44.80;;;;;;7671836;23;20079;-64
2021/04/17 11:51:05;;;;;;;0.63;0.43;;;20.20;44.80;;;;;;7669464;23;20015;-63
2021/04/17 11:54:06;;;;;;;0.60;0.32;;;20.20;44.80;;;;;;7671845;23;20008;-63
2021/04/17 11:57:06;;;;;;;1.52;0.57;;;20.20;44.90;;;;;;7670668;23;20047;-63
2021/04/17 12:00:07;;;;;;;1.10;0.68;;;20.20;44.80;;;;;;7670360;23;20017;-63
2021/04/17 12:03:08;;;;;;;1.00;0.40;;;20.20;44.90;;;;;;7670393;23;20005;-64
2021/04/17 12:06:08;;;;;;;1.88;0.50;;;20.20;44.90;;;;;;7668894;23;20447;-63
2021/04/17 12:09:09;;;;;;;1.85;0.60;;;20.20;44.90;;;;;;7670782;23;20440;-63
2021/04/17 12:12:10;;;;;;;1.40;0.63;;;20.20;44.90;;;;;;7670025;23;20436;-63
2021/04/17 12:15:12;;;;;;;1.27;0.60;;;20.20;44.90;;;;;;7670407;23;20036;-63
2021/04/17 12:18:14;;;;;;;1.20;0.70;;;20.20;45.00;;;;;;7669602;23;20452;-63
2021/04/17 12:21:14;;;;;;;0.65;0.40;;;20.20;45.00;;;;;;7670005;23;20040;-63
2021/04/17 12:24:15;;;;;;;1.20;0.77;;;20.20;45.00;;;;;;7664306;23;20005;-64
2021/04/17 12:27:15;;;;;;;1.73;0.70;;;20.20;45.70;;;;;;7670181;23;20091;-63
2021/04/17 12:30:17;;;;;;;0.65;0.50;;;20.20;45.00;;;;;;7670103;23;20001;-64
2021/04/17 12:33:18;;;;;;;2.03;0.50;;;20.20;45.00;;;;;;7669731;23;20080;-64
2021/04/17 12:36:19;;;;;;;1.15;0.60;;;20.20;45.00;;;;;;7670490;23;20012;-64
2021/04/17 12:39:19;;;;;;;0.80;0.50;;;20.20;45.10;;;;;;7671095;23;20016;-63
2021/04/17 12:42:20;;;;;;;1.42;0.50;;;20.20;45.00;;;;;;7668737;23;20088;-63
2021/04/17 12:45:21;;;;;;;1.98;0.70;;;20.20;45.10;;;;;;7669887;23;20005;-64
2021/04/17 12:48:21;;;;;;;0.68;0.43;;;20.20;45.80;;;;;;7670610;23;20141;-63
2021/04/17 12:51:22;;;;;;;1.10;0.55;;;20.20;45.10;;;;;;7669753;23;20395;-63
2021/04/17 12:54:22;;;;;;;0.60;0.50;;;20.20;45.10;;;;;;7670131;23;20080;-63
2021/04/17 12:57:23;;;;;;;0.52;0.40;;;20.20;45.10;;;;;;7670444;23;20001;-63
2021/04/17 13:00:24;;;;;;;0.95;0.63;;;20.20;45.10;;;;;;7670926;23;20403;-64
2021/04/17 13:03:24;;;;;;;3.55;0.50;;;20.20;45.20;;;;;;7670128;23;20071;-64
2021/04/17 13:06:27;;;;;;;1.98;0.70;;;20.20;45.10;;;;;;7669051;23;20009;-63
2021/04/17 13:09:27;;;;;;;1.10;0.50;;;20.20;45.10;;;;;;7671244;23;20002;-63
2021/04/17 13:12:28;;;;;;;3.03;0.73;;;20.20;45.10;;;;;;7669630;23;20005;-64
2021/04/17 13:15:29;;;;;;;1.52;0.50;;;20.20;45.10;;;;;;7671235;23;20008;-64
2021/04/17 13:18:30;;;;;;;2.55;0.70;;;20.20;45.10;;;;;;7669521;23;20021;-63
2021/04/17 13:21:31;;;;;;;1.98;0.70;;;20.20;45.20;;;;;;7670076;23;20115;-64
2021/04/17 13:24:31;;;;;;;2.28;0.70;;;20.20;45.20;;;;;;7669896;23;20005;-64
2021/04/17 13:27:32;;;;;;;3.90;0.57;;;20.20;45.20;;;;;;7670504;23;20009;-64
2021/04/17 13:30:33;;;;;;;6.25;0.75;;;20.20;45.20;;;;;;7669176;23;20047;-64
2021/04/17 13:33:34;;;;;;;1.55;0.90;;;20.20;45.20;;;;;;7669303;23;20492;-64
2021/04/17 13:36:35;;;;;;;3.00;0.60;;;20.20;45.20;;;;;;7670949;23;20040;-63
2021/04/17 13:39:36;;;;;;;2.45;0.70;;;20.20;45.20;;;;;;7671358;23;20092;-63
2021/04/17 13:42:37;;;;;;;7.78;0.80;;;20.20;45.30;;;;;;7671198;23;20454;-63
2021/04/17 13:45:37;;;;;;;6.32;0.65;;;20.20;45.30;;;;;;7673113;23;20005;-63
2021/04/17 13:48:38;;;;;;;8.80;1.20;;;20.20;45.30;;;;;;7672429;23;20433;-63
2021/04/17 13:51:39;;;;;;;5.65;0.57;;;20.20;45.20;;;;;;7672528;23;20008;-64
2021/04/17 13:54:39;;;;;;;3.97;0.70;;;20.20;45.30;;;;;;7671577;23;20001;-63
2021/04/17 13:57:40;;;;;;;8.02;1.00;;;20.20;45.30;;;;;;7672563;23;20093;-63
2021/04/17 14:00:40;;;;;;;5.22;0.80;;;20.20;45.30;;;;;;7671927;23;20013;-63
2021/04/17 14:03:41;;;;;;;2.33;0.85;;;20.20;45.30;;;;;;7672094;23;20028;-63
2021/04/17 14:06:41;;;;;;;8.90;1.05;;;20.20;45.30;;;;;;7671379;23;20001;-63
2021/04/17 14:09:42;;;;;;;2.70;0.63;;;20.20;45.30;;;;;;7672610;23;20012;-63
2021/04/17 14:12:42;;;;;;;8.27;1.00;;;20.20;45.30;;;;;;7671314;23;20429;-63
2021/04/17 14:15:43;;;;;;;7.45;1.08;;;20.20;45.30;;;;;;7673183;23;20009;-63
2021/04/17 14:18:43;;;;;;;8.55;0.82;;;20.20;45.30;;;;;;7672119;23;20353;-63
2021/04/17 14:21:46;;;;;;;7.57;1.23;;;20.20;45.30;;;;;;7670880;23;20487;-63
2021/04/17 14:24:46;;;;;;;7.03;1.17;;;20.20;45.30;;;;;;7672731;23;20084;-63
2021/04/17 14:27:47;;;;;;;10.63;1.38;;;20.20;45.30;;;;;;7673071;23;20019;-63
2021/04/17 14:30:47;;;;;;;7.28;1.38;;;20.20;45.40;;;;;;7672181;23;20302;-63
2021/04/17 14:33:48;;;;;;;6.53;1.27;;;20.20;45.60;;;;;;7670736;23;20009;-63
2021/04/17 14:36:49;;;;;;;16.23;1.52;;;20.20;45.60;;;;;;7672756;23;20417;-64
2021/04/17 14:39:50;;;;;;;19.45;1.75;;;20.20;45.50;;;;;;7671925;23;20337;-63
2021/04/17 14:42:51;;;;;;;16.67;1.27;;;20.20;45.60;;;;;;7672162;23;20009;-63
2021/04/17 14:45:52;;;;;;;8.55;1.75;;;20.20;45.60;;;;;;7671174;23;20009;-63
2021/04/17 14:48:52;;;;;;;18.05;2.05;;;20.30;45.60;;;;;;7669889;23;20009;-63
2021/04/17 14:51:53;;;;;;;10.18;1.10;;;20.30;45.70;;;;;;7671899;23;20081;-63
2021/04/17 14:54:56;;;;;;;14.55;1.48;;;20.30;45.60;;;;;;7671529;23;20336;-64
2021/04/17 14:57:57;;;;;;;12.10;1.35;;;20.30;45.60;;;;;;7670924;23;20372;-64
2021/04/17 15:00:57;;;;;;;10.95;1.13;;;20.30;45.60;;;;;;7671301;23;20021;-63
2021/04/17 15:03:58;;;;;;;12.52;1.30;;;20.20;45.40;;;;;;7668739;23;20005;-63
2021/04/17 15:06:58;;;;;;;6.80;1.00;;;20.30;45.50;;;;;;7671386;23;20009;-63
2021/04/17 15:09:59;;;;;;;8.88;1.02;;;20.20;45.40;;;;;;7670625;23;20020;-63
2021/04/17 15:12:59;;;;;;;8.77;1.20;;;20.30;45.60;;;;;;7671387;23;20029;-63
2021/04/17 15:16:01;;;;;;;5.13;1.20;;;20.20;45.50;;;;;;7672388;23;20009;-63
2021/04/17 15:19:02;;;;;;;9.75;1.40;;;20.20;45.50;;;;;;7671063;23;20428;-64
2021/04/17 15:22:02;;;;;;;15.85;1.92;;;20.30;45.60;;;;;;7669685;23;20025;-63
2021/04/17 15:25:04;;;;;;;5.90;1.30;;;20.20;45.50;;;;;;7671052;23;20036;-63
2021/04/17 15:28:06;;;;;;;6.05;1.08;;;20.20;45.50;;;;;;7672039;23;20084;-63
2021/04/17 15:31:08;;;;;;;4.90;1.00;;;20.20;45.50;;;;;;7670465;23;20235;-63
2021/04/17 15:34:10;;;;;;;13.50;1.50;;;20.20;45.50;;;;;;7669999;23;20012;-64
2021/04/17 15:37:11;;;;;;;8.20;1.48;;;20.20;45.50;;;;;;7670473;23;20001;-63
2021/04/17 15:40:12;;;;;;;11.02;1.30;;;20.20;45.50;;;;;;7670628;23;20009;-63
2021/04/17 15:43:13;;;;;;;5.88;1.20;;;20.20;45.50;;;;;;7670642;23;20348;-63
2021/04/17 15:46:13;;;;;;;2.92;0.70;;;20.20;45.60;;;;;;7669788;23;20083;-63
2021/04/17 15:49:14;;;;;;;5.45;1.08;;;20.20;45.60;;;;;;7671730;23;20021;-63
2021/04/17 15:52:15;;;;;;;3.78;1.38;;;20.20;45.60;;;;;;7669757;23;20001;-63
2021/04/17 15:55:15;;;;;;;3.53;0.90;;;20.20;45.60;;;;;;7669868;23;20466;-63